createdAt,value
2023-08-01T00:00:09.828Z,16.83
2023-08-01T00:01:06.876Z,16.88
2023-08-01T00:02:04.150Z,16.93
2023-08-01T00:03:01.207Z,17.01
2023-08-01T00:03:58.350Z,17.09
2023-08-01T00:04:55.367Z,17.09
2023-08-01T00:05:52.400Z,17.15
2023-08-01T00:06:49.356Z,17.22
2023-08-01T00:07:46.330Z,17.26
2023-08-01T00:08:43.297Z,17.31
2023-08-01T00:09:40.223Z,17.32
2023-08-01T00:10:37.178Z,17.46
2023-08-01T00:11:34.075Z,17.53
2023-08-01T00:12:31.040Z,17.63
2023-08-01T00:13:28.102Z,17.66
2023-08-01T00:14:27.874Z,17.67
2023-08-01T00:15:24.832Z,17.74
2023-08-01T00:16:21.788Z,17.79
2023-08-01T00:17:19.023Z,17.85
2023-08-01T00:18:16.036Z,17.89
2023-08-01T00:19:13.886Z,17.91
2023-08-01T00:20:11.311Z,18.00
2023-08-01T00:21:11.378Z,18.02
2023-08-01T00:22:08.401Z,18.04
2023-08-01T00:23:05.306Z,18.09
2023-08-01T00:24:02.304Z,18.11
2023-08-01T00:24:59.881Z,18.11
2023-08-01T00:25:56.914Z,18.14
2023-08-01T00:26:56.417Z,18.19
2023-08-01T00:27:53.375Z,18.19
2023-08-01T00:28:50.686Z,18.23
2023-08-01T00:29:47.899Z,18.30
2023-08-01T00:30:44.883Z,18.36
2023-08-01T00:31:41.813Z,18.39
2023-08-01T00:32:39.248Z,18.38
2023-08-01T00:33:36.608Z,18.41
2023-08-01T00:34:33.543Z,18.43
2023-08-01T00:35:30.505Z,18.43
2023-08-01T00:36:27.477Z,18.44
2023-08-01T00:37:24.395Z,18.40
2023-08-01T00:38:21.323Z,18.39
2023-08-01T00:39:18.457Z,18.36
2023-08-01T00:40:15.358Z,18.38
2023-08-01T00:41:12.349Z,18.37
2023-08-01T00:42:09.438Z,18.42
2023-08-01T00:43:07.077Z,18.50
2023-08-01T00:44:04.284Z,18.55
2023-08-01T00:45:01.969Z,18.54
2023-08-01T00:46:02.508Z,18.57
2023-08-01T00:46:59.318Z,18.54
2023-08-01T00:47:56.755Z,18.55
2023-08-01T00:48:54.687Z,18.60
2023-08-01T00:49:51.867Z,18.64
2023-08-01T00:50:48.832Z,18.66
2023-08-01T00:51:46.183Z,18.65
2023-08-01T00:52:43.162Z,18.60
2023-08-01T00:53:40.990Z,18.66
2023-08-01T00:54:38.216Z,18.64
2023-08-01T00:55:35.689Z,18.65
2023-08-01T00:56:32.903Z,18.69
2023-08-01T00:57:29.994Z,18.66
2023-08-01T00:58:27.097Z,18.73
2023-08-01T00:59:24.135Z,18.73
2023-08-01T01:00:21.106Z,18.75
2023-08-01T01:01:18.693Z,18.75
2023-08-01T01:02:15.713Z,18.71
2023-08-01T01:03:12.940Z,18.73
2023-08-01T01:04:10.326Z,18.73
2023-08-01T01:05:07.655Z,18.74
2023-08-01T01:06:26.526Z,18.74
2023-08-01T01:07:25.217Z,18.78
2023-08-01T01:08:22.369Z,18.81
2023-08-01T01:09:20.091Z,18.83
2023-08-01T01:10:17.096Z,18.74
2023-08-01T01:11:14.127Z,18.75
2023-08-01T01:12:11.096Z,18.74
2023-08-01T01:13:08.125Z,18.74
2023-08-01T01:14:05.124Z,18.73
2023-08-01T01:15:02.047Z,18.76
2023-08-01T01:15:59.000Z,18.71
2023-08-01T01:16:56.625Z,18.74
2023-08-01T01:17:53.658Z,18.74
2023-08-01T01:18:50.747Z,18.73
2023-08-01T01:19:47.729Z,18.72
2023-08-01T01:20:44.693Z,18.69
2023-08-01T01:21:42.904Z,18.70
2023-08-01T01:22:40.686Z,18.64
2023-08-01T01:23:39.615Z,18.59
2023-08-01T01:24:36.920Z,18.61
2023-08-01T01:25:34.212Z,18.68
2023-08-01T01:26:31.822Z,18.67
2023-08-01T01:27:29.613Z,18.61
2023-08-01T01:28:27.456Z,18.60
2023-08-01T01:29:25.171Z,18.61
2023-08-01T01:30:22.219Z,18.62
2023-08-01T01:31:19.287Z,18.62
2023-08-01T01:32:16.567Z,18.59
2023-08-01T01:33:13.864Z,18.61
2023-08-01T01:34:11.403Z,18.65
2023-08-01T01:35:08.624Z,18.64
2023-08-01T01:36:05.951Z,18.66
2023-08-01T01:37:04.715Z,18.65
2023-08-01T01:38:05.060Z,18.65
2023-08-01T01:39:02.009Z,18.64
2023-08-01T01:39:59.015Z,18.59
2023-08-01T01:40:55.988Z,18.63
2023-08-01T01:41:52.904Z,18.68
2023-08-01T01:42:50.747Z,18.69
2023-08-01T01:43:47.849Z,18.75
2023-08-01T01:44:44.819Z,18.74
2023-08-01T01:45:42.008Z,18.78
2023-08-01T01:46:39.529Z,18.77
2023-08-01T01:47:36.997Z,18.75
2023-08-01T01:48:34.157Z,18.71
2023-08-01T01:49:31.181Z,18.68
2023-08-01T01:50:28.282Z,18.64
2023-08-01T01:51:27.337Z,18.64
2023-08-01T01:52:24.343Z,18.67
2023-08-01T01:53:21.289Z,18.72
2023-08-01T01:54:18.200Z,18.70
2023-08-01T01:55:15.605Z,18.72
2023-08-01T01:56:12.591Z,18.77
2023-08-01T01:57:10.066Z,18.80
2023-08-01T01:58:07.586Z,18.79
2023-08-01T01:59:04.636Z,18.76
2023-08-01T02:00:01.566Z,18.75
2023-08-01T02:00:58.539Z,18.74
2023-08-01T02:01:55.544Z,18.77
2023-08-01T02:02:52.588Z,18.74
2023-08-01T02:03:49.533Z,18.71
2023-08-01T02:04:48.113Z,18.72
2023-08-01T02:05:46.138Z,18.81
2023-08-01T02:06:43.337Z,18.82
2023-08-01T02:07:40.357Z,18.83
2023-08-01T02:08:37.297Z,18.82
2023-08-01T02:09:34.259Z,18.77
2023-08-01T02:10:34.057Z,18.74
2023-08-01T02:11:31.003Z,18.80
2023-08-01T02:12:28.877Z,18.76
2023-08-01T02:13:30.498Z,18.67
2023-08-01T02:14:27.979Z,18.66
2023-08-01T02:15:25.007Z,18.69
2023-08-01T02:16:22.033Z,18.68
2023-08-01T02:17:19.236Z,18.70
2023-08-01T02:18:16.204Z,18.72
2023-08-01T02:19:13.127Z,18.73
2023-08-01T02:20:10.331Z,18.71
2023-08-01T02:21:07.288Z,18.70
2023-08-01T02:22:04.415Z,18.70
2023-08-01T02:23:01.286Z,18.67
2023-08-01T02:23:58.296Z,18.63
2023-08-01T02:24:55.269Z,18.59
2023-08-01T02:25:52.992Z,18.52
2023-08-01T02:26:51.536Z,18.49
2023-08-01T02:27:48.547Z,18.44
2023-08-01T02:28:45.546Z,18.45
2023-08-01T02:29:42.616Z,18.40
2023-08-01T02:30:39.945Z,18.43
2023-08-01T02:31:36.936Z,18.49
2023-08-01T02:32:34.077Z,18.50
2023-08-01T02:33:31.237Z,18.44
2023-08-01T02:34:28.278Z,18.53
2023-08-01T02:35:25.319Z,18.53
2023-08-01T02:36:22.333Z,18.45
2023-08-01T02:37:19.377Z,18.48
2023-08-01T02:38:16.392Z,18.53
2023-08-01T02:39:13.348Z,18.52
2023-08-01T02:40:11.001Z,18.49
2023-08-01T02:41:08.041Z,18.47
2023-08-01T02:42:05.057Z,18.55
2023-08-01T02:43:02.041Z,18.54
2023-08-01T02:43:58.919Z,18.41
2023-08-01T02:44:55.948Z,18.40
2023-08-01T02:45:52.975Z,18.42
2023-08-01T02:46:49.892Z,18.40
2023-08-01T02:47:46.854Z,18.36
2023-08-01T02:48:44.012Z,18.39
2023-08-01T02:49:40.956Z,18.31
2023-08-01T02:50:37.820Z,18.35
2023-08-01T02:51:34.734Z,18.34
2023-08-01T02:52:31.634Z,18.32
2023-08-01T02:53:28.567Z,18.37
2023-08-01T02:54:25.925Z,18.32
2023-08-01T02:55:22.931Z,18.26
2023-08-01T02:56:19.774Z,18.23
2023-08-01T02:57:17.072Z,18.27
2023-08-01T02:58:13.991Z,18.29
2023-08-01T02:59:11.302Z,18.32
2023-08-01T03:00:13.059Z,18.36
2023-08-01T03:01:14.662Z,18.36
2023-08-01T03:02:11.753Z,18.28
2023-08-01T03:03:08.724Z,18.25
2023-08-01T03:04:07.603Z,18.29
2023-08-01T03:05:06.281Z,18.31
2023-08-01T03:06:03.755Z,18.27
2023-08-01T03:07:00.759Z,18.32
2023-08-01T03:07:58.088Z,18.24
2023-08-01T03:08:54.994Z,18.25
2023-08-01T03:09:51.895Z,18.33
2023-08-01T03:10:48.950Z,18.31
2023-08-01T03:11:45.944Z,18.24
2023-08-01T03:12:42.957Z,18.21
2023-08-01T03:13:39.864Z,18.24
2023-08-01T03:14:36.958Z,18.19
2023-08-01T03:15:34.063Z,18.16
2023-08-01T03:16:31.474Z,18.17
2023-08-01T03:17:28.445Z,18.26
2023-08-01T03:18:25.403Z,18.25
2023-08-01T03:19:22.292Z,18.25
2023-08-01T03:20:19.195Z,18.20
2023-08-01T03:21:16.158Z,18.31
2023-08-01T03:22:13.169Z,18.29
2023-08-01T03:23:10.146Z,18.32
2023-08-01T03:24:10.022Z,18.31
2023-08-01T03:25:08.762Z,18.25
2023-08-01T03:26:05.754Z,18.26
2023-08-01T03:27:03.080Z,18.29
2023-08-01T03:28:00.113Z,18.27
2023-08-01T03:28:57.462Z,18.36
2023-08-01T03:29:54.409Z,18.39
2023-08-01T03:30:51.833Z,18.44
2023-08-01T03:31:48.905Z,18.46
2023-08-01T03:32:46.096Z,18.45
2023-08-01T03:33:43.173Z,18.44
2023-08-01T03:34:42.583Z,18.47
2023-08-01T03:35:39.775Z,18.41
2023-08-01T03:36:37.014Z,18.43
2023-08-01T03:37:34.395Z,18.44
2023-08-01T03:38:31.361Z,18.46
2023-08-01T03:39:28.331Z,18.50
2023-08-01T03:40:25.415Z,18.47
2023-08-01T03:41:22.408Z,18.48
2023-08-01T03:42:19.919Z,18.51
2023-08-01T03:43:16.828Z,18.55
2023-08-01T03:44:14.040Z,18.55
2023-08-01T03:45:11.546Z,18.58
2023-08-01T03:46:09.033Z,18.64
2023-08-01T03:47:07.986Z,18.66
2023-08-01T03:48:05.240Z,18.68
2023-08-01T03:49:02.316Z,18.71
2023-08-01T03:49:59.232Z,18.74
2023-08-01T03:50:56.367Z,18.83
2023-08-01T03:51:53.334Z,18.82
2023-08-01T03:52:50.409Z,18.87
2023-08-01T03:53:56.152Z,18.87
2023-08-01T03:54:57.207Z,18.88
2023-08-01T03:55:54.104Z,18.89
2023-08-01T03:56:51.205Z,18.89
2023-08-01T03:57:48.243Z,18.95
2023-08-01T03:58:45.216Z,18.95
2023-08-01T03:59:42.308Z,18.98
2023-08-01T04:00:39.448Z,19.00
2023-08-01T04:01:36.362Z,19.02
2023-08-01T04:02:33.337Z,19.03
2023-08-01T04:03:30.411Z,19.04
2023-08-01T04:04:27.946Z,19.09
2023-08-01T04:05:25.505Z,19.11
2023-08-01T04:06:22.420Z,19.12
2023-08-01T04:07:20.044Z,19.10
2023-08-01T04:08:17.087Z,19.17
2023-08-01T04:09:13.989Z,19.18
2023-08-01T04:10:11.372Z,19.24
2023-08-01T04:11:08.367Z,19.22
2023-08-01T04:12:07.876Z,19.18
2023-08-01T04:13:05.251Z,19.18
2023-08-01T04:14:02.473Z,19.22
2023-08-01T04:15:00.036Z,19.26
2023-08-01T04:15:57.056Z,19.28
2023-08-01T04:16:54.076Z,19.32
2023-08-01T04:17:51.045Z,19.38
2023-08-01T04:18:47.983Z,19.37
2023-08-01T04:19:44.911Z,19.26
2023-08-01T04:20:41.810Z,19.31
2023-08-01T04:21:38.863Z,19.40
2023-08-01T04:22:35.855Z,19.58
2023-08-01T04:23:32.697Z,19.73
2023-08-01T04:24:32.306Z,19.84
2023-08-01T04:25:29.506Z,19.92
2023-08-01T04:26:26.361Z,20.15
2023-08-01T04:27:23.306Z,20.37
2023-08-01T04:28:20.285Z,20.54
2023-08-01T04:29:19.208Z,20.62
2023-08-01T04:30:16.130Z,20.78
2023-08-01T04:31:13.128Z,20.87
2023-08-01T04:32:10.164Z,20.88
2023-08-01T04:33:07.094Z,20.94
2023-08-01T04:34:04.113Z,21.17
2023-08-01T04:35:01.080Z,21.40
2023-08-01T04:35:58.058Z,21.59
2023-08-01T04:36:54.996Z,21.84
2023-08-01T04:37:52.025Z,21.92
2023-08-01T04:39:45.981Z,22.32
2023-08-01T04:40:42.995Z,22.43
2023-08-01T04:41:39.886Z,22.43
2023-08-01T04:42:36.982Z,22.41
2023-08-01T04:43:33.922Z,22.56
2023-08-01T04:44:31.581Z,22.65
2023-08-01T04:45:28.628Z,22.57
2023-08-01T04:46:25.576Z,22.65
2023-08-01T04:47:22.846Z,22.73
2023-08-01T04:48:19.878Z,22.74
2023-08-01T04:49:16.896Z,22.91
2023-08-01T04:50:13.775Z,22.89
2023-08-01T04:51:10.627Z,23.29
2023-08-01T04:52:09.349Z,23.84
2023-08-01T04:53:07.551Z,24.20
2023-08-01T04:54:05.148Z,24.39
2023-08-01T04:55:02.083Z,24.31
2023-08-01T04:55:59.265Z,24.49
2023-08-01T04:56:56.197Z,24.44
2023-08-01T04:57:53.153Z,24.28
2023-08-01T04:58:50.180Z,24.39
2023-08-01T04:59:47.235Z,24.44
2023-08-01T05:00:44.200Z,24.70
2023-08-01T05:01:41.575Z,24.62
2023-08-01T05:02:38.950Z,25.00
2023-08-01T05:03:35.926Z,24.99
2023-08-01T05:04:32.923Z,24.95
2023-08-01T05:05:29.901Z,24.72
2023-08-01T05:06:26.847Z,24.58
2023-08-01T05:07:23.851Z,24.78
2023-08-01T05:08:20.726Z,24.61
2023-08-01T05:09:17.674Z,24.53
2023-08-01T05:10:15.871Z,24.54
2023-08-01T05:11:14.525Z,24.31
2023-08-01T05:12:11.493Z,24.48
2023-08-01T05:13:08.485Z,24.60
2023-08-01T05:14:05.534Z,24.60
2023-08-01T05:15:02.611Z,24.16
2023-08-01T05:15:59.568Z,24.56
2023-08-01T05:16:56.601Z,24.99
2023-08-01T05:17:54.307Z,25.51
2023-08-01T05:18:51.274Z,25.81
2023-08-01T05:19:48.174Z,26.15
2023-08-01T05:20:45.256Z,26.13
2023-08-01T05:21:42.338Z,26.11
2023-08-01T05:22:39.276Z,26.14
2023-08-01T05:23:36.266Z,26.14
2023-08-01T05:24:33.408Z,26.22
2023-08-01T05:25:30.219Z,26.22
2023-08-01T05:26:27.547Z,26.27
2023-08-01T05:27:24.750Z,26.27
2023-08-01T05:28:21.653Z,26.48
2023-08-01T05:29:18.724Z,26.26
2023-08-01T05:30:15.905Z,26.12
2023-08-01T05:31:12.928Z,26.10
2023-08-01T05:32:09.931Z,26.14
2023-08-01T05:33:06.995Z,25.97
2023-08-01T05:34:04.061Z,25.84
2023-08-01T05:35:01.054Z,25.65
2023-08-01T05:35:58.086Z,25.52
2023-08-01T05:36:55.104Z,25.39
2023-08-01T05:37:52.265Z,25.19
2023-08-01T05:38:49.308Z,24.84
2023-08-01T05:39:46.345Z,25.06
2023-08-01T05:40:43.386Z,25.15
2023-08-01T05:41:40.447Z,25.16
2023-08-01T05:42:37.484Z,24.99
2023-08-01T05:43:34.597Z,24.91
2023-08-01T05:44:31.574Z,25.04
2023-08-01T05:45:28.632Z,24.92
2023-08-01T05:46:25.669Z,24.70
2023-08-01T05:47:24.250Z,24.83
2023-08-01T05:48:35.371Z,24.91
2023-08-01T05:49:33.072Z,24.84
2023-08-01T05:50:30.312Z,24.85
2023-08-01T05:51:27.388Z,24.94
2023-08-01T05:52:25.426Z,25.03
2023-08-01T05:53:23.127Z,24.87
2023-08-01T05:54:20.133Z,24.81
2023-08-01T05:55:17.233Z,25.02
2023-08-01T05:56:14.203Z,25.06
2023-08-01T05:57:11.860Z,25.14
2023-08-01T05:58:09.592Z,25.02
2023-08-01T05:59:06.826Z,25.13
2023-08-01T06:00:04.430Z,25.41
2023-08-01T06:01:01.561Z,25.53
2023-08-01T06:01:58.839Z,25.67
2023-08-01T06:02:55.992Z,25.72
2023-08-01T06:03:53.200Z,25.65
2023-08-01T06:04:51.275Z,25.90
2023-08-01T06:05:48.738Z,26.03
2023-08-01T06:06:46.022Z,26.05
2023-08-01T06:07:43.070Z,26.11
2023-08-01T06:08:40.085Z,26.31
2023-08-01T06:09:37.107Z,26.45
2023-08-01T06:10:35.689Z,26.61
2023-08-01T06:11:34.690Z,26.71
2023-08-01T06:12:31.829Z,26.92
2023-08-01T06:13:28.834Z,26.96
2023-08-01T06:14:25.867Z,26.94
2023-08-01T06:15:23.458Z,26.97
2023-08-01T06:16:25.507Z,26.89
2023-08-01T06:17:24.094Z,26.88
2023-08-01T06:18:21.176Z,27.04
2023-08-01T06:19:19.727Z,27.09
2023-08-01T06:20:16.780Z,26.65
2023-08-01T06:21:13.710Z,26.62
2023-08-01T06:22:10.565Z,26.66
2023-08-01T06:23:07.653Z,26.95
2023-08-01T06:24:04.888Z,27.04
2023-08-01T06:25:02.145Z,26.66
2023-08-01T06:25:59.363Z,26.89
2023-08-01T06:26:56.515Z,27.05
2023-08-01T06:27:53.760Z,27.05
2023-08-01T06:28:50.668Z,27.20
2023-08-01T06:29:47.668Z,27.01
2023-08-01T06:30:44.564Z,27.17
2023-08-01T06:31:41.417Z,27.09
2023-08-01T06:32:38.370Z,27.02
2023-08-01T06:33:35.439Z,27.11
2023-08-01T06:34:32.508Z,27.07
2023-08-01T06:35:29.624Z,27.11
2023-08-01T06:36:26.787Z,27.16
2023-08-01T06:37:23.820Z,27.11
2023-08-01T06:38:20.925Z,27.09
2023-08-01T06:39:18.010Z,27.23
2023-08-01T06:40:15.001Z,27.14
2023-08-01T06:41:12.024Z,27.01
2023-08-01T06:42:09.058Z,27.20
2023-08-01T06:43:06.040Z,27.39
2023-08-01T06:44:03.195Z,27.01
2023-08-01T06:45:00.197Z,26.80
2023-08-01T06:45:57.265Z,26.87
2023-08-01T06:46:54.329Z,26.74
2023-08-01T06:47:51.399Z,26.68
2023-08-01T06:48:48.893Z,26.94
2023-08-01T06:49:45.909Z,27.05
2023-08-01T06:50:42.814Z,27.11
2023-08-01T06:51:39.842Z,27.19
2023-08-01T06:52:36.805Z,27.15
2023-08-01T06:53:33.741Z,27.00
2023-08-01T06:54:30.685Z,26.86
2023-08-01T06:55:27.816Z,27.13
2023-08-01T06:56:25.165Z,27.14
2023-08-01T06:57:22.212Z,26.96
2023-08-01T06:58:19.264Z,26.91
2023-08-01T06:59:16.369Z,26.84
2023-08-01T07:00:13.736Z,26.84
2023-08-01T07:01:11.242Z,26.87
2023-08-01T07:02:09.942Z,26.51
2023-08-01T07:03:07.244Z,26.63
2023-08-01T07:04:04.400Z,26.72
2023-08-01T07:05:01.427Z,26.55
2023-08-01T07:05:59.208Z,26.44
2023-08-01T07:06:56.246Z,26.70
2023-08-01T07:07:53.324Z,26.67
2023-08-01T07:08:50.332Z,26.71
2023-08-01T07:09:47.307Z,26.43
2023-08-01T07:10:44.234Z,26.38
2023-08-01T07:11:41.114Z,26.43
2023-08-01T07:12:38.135Z,26.58
2023-08-01T07:13:35.158Z,26.63
2023-08-01T07:14:32.157Z,26.76
2023-08-01T07:15:29.097Z,26.68
2023-08-01T07:16:26.329Z,26.83
2023-08-01T07:17:23.336Z,26.81
2023-08-01T07:18:20.439Z,26.91
2023-08-01T07:19:17.716Z,27.01
2023-08-01T07:20:14.856Z,27.07
2023-08-01T07:21:12.201Z,26.93
2023-08-01T07:22:09.192Z,26.92
2023-08-01T07:23:06.196Z,27.03
2023-08-01T07:24:03.745Z,26.76
2023-08-01T07:25:00.686Z,26.94
2023-08-01T07:25:57.630Z,27.09
2023-08-01T07:26:54.698Z,27.33
2023-08-01T07:27:51.871Z,27.35
2023-08-01T07:28:49.048Z,27.63
2023-08-01T07:29:46.068Z,27.50
2023-08-01T07:30:43.009Z,27.53
2023-08-01T07:31:40.052Z,27.52
2023-08-01T07:32:38.793Z,27.54
2023-08-01T07:33:36.559Z,27.59
2023-08-01T07:34:33.636Z,27.70
2023-08-01T07:35:30.560Z,27.88
2023-08-01T07:36:28.070Z,28.08
2023-08-01T07:37:25.799Z,28.15
2023-08-01T07:38:23.008Z,27.92
2023-08-01T07:39:19.957Z,27.60
2023-08-01T07:40:17.075Z,27.68
2023-08-01T07:41:14.534Z,27.99
2023-08-01T07:42:11.599Z,28.01
2023-08-01T07:43:08.686Z,27.81
2023-08-01T07:44:05.829Z,27.94
2023-08-01T07:45:02.799Z,27.57
2023-08-01T07:46:00.529Z,27.73
2023-08-01T07:46:58.403Z,27.94
2023-08-01T07:47:55.482Z,27.88
2023-08-01T07:48:54.935Z,27.73
2023-08-01T07:49:52.808Z,27.51
2023-08-01T07:50:49.857Z,27.70
2023-08-01T07:51:46.955Z,28.00
2023-08-01T07:52:44.062Z,28.13
2023-08-01T07:53:41.873Z,28.26
2023-08-01T07:54:39.026Z,28.23
2023-08-01T07:55:36.403Z,28.22
2023-08-01T07:56:33.443Z,28.18
2023-08-01T07:57:30.393Z,28.38
2023-08-01T07:58:27.447Z,28.06
2023-08-01T07:59:24.500Z,28.22
2023-08-01T08:00:21.876Z,28.25
2023-08-01T08:01:19.232Z,28.65
2023-08-01T08:02:19.706Z,28.78
2023-08-01T08:03:17.439Z,28.88
2023-08-01T08:04:15.555Z,28.87
2023-08-01T08:05:13.602Z,28.86
2023-08-01T08:06:10.678Z,29.16
2023-08-01T08:07:07.934Z,29.29
2023-08-01T08:08:05.341Z,29.34
2023-08-01T08:09:02.396Z,29.61
2023-08-01T08:09:59.489Z,29.73
2023-08-01T08:10:56.874Z,29.68
2023-08-01T08:11:53.933Z,29.53
2023-08-01T08:12:51.097Z,29.67
2023-08-01T08:13:48.318Z,29.85
2023-08-01T08:14:45.546Z,29.76
2023-08-01T08:15:42.649Z,29.96
2023-08-01T08:16:40.246Z,29.99
2023-08-01T08:17:37.651Z,30.18
2023-08-01T08:18:35.178Z,30.10
2023-08-01T08:19:32.324Z,29.98
2023-08-01T08:20:29.798Z,30.27
2023-08-01T08:21:26.785Z,30.26
2023-08-01T08:22:23.772Z,30.32
2023-08-01T08:23:20.884Z,30.05
2023-08-01T08:24:17.954Z,30.00
2023-08-01T08:25:15.004Z,30.09
2023-08-01T08:26:12.058Z,29.93
2023-08-01T08:27:09.148Z,29.76
2023-08-01T08:28:06.295Z,29.81
2023-08-01T08:29:03.853Z,29.96
2023-08-01T08:30:01.068Z,29.79
2023-08-01T08:30:58.601Z,29.86
2023-08-01T08:31:55.723Z,30.08
2023-08-01T08:32:52.701Z,30.09
2023-08-01T08:33:49.782Z,30.28
2023-08-01T08:34:46.833Z,30.25
2023-08-01T08:35:44.251Z,29.90
2023-08-01T08:36:41.612Z,29.75
2023-08-01T08:37:38.826Z,29.81
2023-08-01T08:38:36.022Z,29.82
2023-08-01T08:39:33.243Z,29.76
2023-08-01T08:40:33.274Z,29.87
2023-08-01T08:41:31.815Z,29.89
2023-08-01T08:42:28.733Z,29.64
2023-08-01T08:43:27.683Z,29.56
2023-08-01T08:44:31.839Z,29.45
2023-08-01T08:45:30.715Z,29.61
2023-08-01T08:46:30.773Z,29.41
2023-08-01T08:47:29.850Z,29.41
2023-08-01T08:48:27.446Z,29.34
2023-08-01T08:49:26.058Z,29.48
2023-08-01T08:50:23.026Z,29.31
2023-08-01T08:51:20.297Z,29.28
2023-08-01T08:52:17.675Z,29.22
2023-08-01T08:53:15.605Z,29.44
2023-08-01T08:54:13.280Z,29.50
2023-08-01T08:55:10.476Z,29.55
2023-08-01T08:56:09.892Z,29.61
2023-08-01T08:57:08.161Z,29.56
2023-08-01T08:58:05.849Z,29.40
2023-08-01T08:59:03.244Z,29.74
2023-08-01T09:00:01.629Z,29.78
2023-08-01T09:01:00.999Z,29.34
2023-08-01T09:01:58.155Z,29.52
2023-08-01T09:02:55.233Z,29.73
2023-08-01T09:03:52.348Z,29.88
2023-08-01T09:04:49.435Z,29.92
2023-08-01T09:05:50.773Z,29.95
2023-08-01T09:06:52.203Z,29.78
2023-08-01T09:07:51.787Z,29.76
2023-08-01T09:08:54.769Z,29.77
2023-08-01T09:09:51.777Z,29.79
2023-08-01T09:10:49.414Z,29.62
2023-08-01T09:11:53.915Z,29.68
2023-08-01T09:12:51.680Z,29.84
2023-08-01T09:13:49.326Z,29.76
2023-08-01T09:14:46.980Z,29.79
2023-08-01T09:15:45.125Z,29.51
2023-08-01T09:16:43.144Z,29.51
2023-08-01T09:17:52.742Z,29.42
2023-08-01T09:18:53.357Z,29.24
2023-08-01T09:19:50.417Z,29.40
2023-08-01T09:20:49.089Z,29.38
2023-08-01T09:21:46.612Z,29.05
2023-08-01T09:22:47.688Z,28.75
2023-08-01T09:23:44.701Z,28.87
2023-08-01T09:24:52.752Z,29.09
2023-08-01T09:25:49.814Z,29.30
2023-08-01T09:26:47.887Z,29.27
2023-08-01T09:27:44.963Z,29.21
2023-08-01T09:28:42.169Z,29.07
2023-08-01T09:29:39.420Z,29.05
2023-08-01T09:30:48.784Z,29.13
2023-08-01T09:31:45.955Z,29.10
2023-08-01T09:32:56.297Z,29.29
2023-08-01T09:33:53.286Z,29.19
2023-08-01T09:34:59.879Z,29.36
2023-08-01T09:35:56.923Z,29.47
2023-08-01T09:37:02.737Z,29.43
2023-08-01T09:38:01.583Z,29.48
2023-08-01T09:39:04.189Z,29.64
2023-08-01T09:40:01.184Z,29.52
2023-08-01T09:40:58.296Z,29.73
2023-08-01T09:41:59.871Z,29.83
2023-08-01T09:43:02.953Z,29.86
2023-08-01T09:44:01.131Z,29.94
2023-08-01T09:44:58.367Z,29.87
2023-08-01T09:45:55.776Z,29.64
2023-08-01T09:47:08.513Z,29.68
2023-08-01T09:48:06.965Z,29.97
2023-08-01T09:49:14.006Z,30.13
2023-08-01T09:50:12.541Z,30.03
2023-08-01T09:51:13.147Z,29.76
2023-08-01T09:52:10.306Z,29.80
2023-08-01T09:53:10.603Z,29.90
2023-08-01T09:54:07.603Z,30.26
2023-08-01T09:55:04.964Z,30.47
2023-08-01T09:56:05.247Z,30.57
2023-08-01T09:57:06.264Z,30.64
2023-08-01T09:58:04.343Z,30.67
2023-08-01T09:59:01.330Z,30.28
2023-08-01T09:59:59.695Z,30.25
2023-08-01T10:00:57.182Z,30.21
2023-08-01T10:01:55.507Z,30.38
2023-08-01T10:02:54.637Z,30.32
2023-08-01T10:03:53.831Z,30.55
2023-08-01T10:04:51.465Z,30.38
2023-08-01T10:05:48.566Z,30.07
2023-08-01T10:06:48.399Z,30.29
2023-08-01T10:07:45.980Z,30.48
2023-08-01T10:08:43.612Z,30.51
2023-08-01T10:09:41.617Z,30.78
2023-08-01T10:10:39.016Z,30.74
2023-08-01T10:11:36.586Z,30.22
2023-08-01T10:12:34.254Z,30.41
2023-08-01T10:13:31.641Z,30.48
2023-08-01T10:14:28.777Z,30.54
2023-08-01T10:15:28.808Z,30.74
2023-08-01T10:16:26.001Z,30.86
2023-08-01T10:17:23.857Z,30.82
2023-08-01T10:18:21.353Z,30.72
2023-08-01T10:19:19.168Z,30.28
2023-08-01T10:20:17.041Z,30.46
2023-08-01T10:21:16.103Z,30.45
2023-08-01T10:22:13.454Z,30.64
2023-08-01T10:23:10.917Z,30.66
2023-08-01T10:24:08.131Z,30.63
2023-08-01T10:25:06.085Z,30.76
2023-08-01T10:26:06.895Z,30.69
2023-08-01T10:27:16.862Z,30.65
2023-08-01T10:28:14.043Z,30.57
2023-08-01T10:29:11.456Z,30.23
2023-08-01T10:30:09.405Z,30.22
2023-08-01T10:31:15.030Z,30.22
2023-08-01T10:32:12.469Z,30.37
2023-08-01T10:33:14.138Z,30.12
2023-08-01T10:34:15.986Z,29.89
2023-08-01T10:35:15.304Z,30.03
2023-08-01T10:36:20.013Z,30.16
2023-08-01T10:37:17.074Z,30.29
2023-08-01T10:38:14.245Z,30.33
2023-08-01T10:39:23.046Z,30.58
2023-08-01T10:40:20.034Z,30.64
2023-08-01T10:41:35.148Z,30.65
2023-08-01T10:42:45.766Z,30.60
2023-08-01T10:43:44.948Z,30.54
2023-08-01T10:44:48.215Z,30.26
2023-08-01T10:45:45.277Z,30.36
2023-08-01T10:46:49.208Z,30.49
2023-08-01T10:47:46.378Z,30.35
2023-08-01T10:48:51.270Z,30.17
2023-08-01T10:49:48.317Z,30.30
2023-08-01T10:50:56.136Z,30.15
2023-08-01T10:51:53.283Z,30.13
2023-08-01T10:52:50.315Z,30.07
2023-08-01T10:53:47.516Z,30.06
2023-08-01T10:54:44.593Z,30.21
2023-08-01T10:55:46.592Z,30.33
2023-08-01T10:56:47.517Z,30.41
2023-08-01T10:57:51.250Z,30.55
2023-08-01T10:58:48.898Z,30.45
2023-08-01T10:59:46.477Z,30.49
2023-08-01T11:00:44.345Z,30.52
2023-08-01T11:01:52.874Z,30.64
2023-08-01T11:02:53.157Z,30.76
2023-08-01T11:03:50.501Z,30.72
2023-08-01T11:04:56.921Z,30.67
2023-08-01T11:05:59.957Z,30.57
2023-08-01T11:06:57.796Z,30.35
2023-08-01T11:07:57.271Z,30.14
2023-08-01T11:08:54.400Z,30.32
2023-08-01T11:09:51.592Z,30.48
2023-08-01T11:10:51.473Z,30.19
2023-08-01T11:11:53.806Z,30.26
2023-08-01T11:12:50.988Z,30.25
2023-08-01T11:13:53.288Z,30.49
2023-08-01T11:14:50.425Z,30.58
2023-08-01T11:15:47.449Z,30.64
2023-08-01T11:16:46.101Z,30.63
2023-08-01T11:17:48.258Z,30.73
2023-08-01T11:18:46.320Z,30.83
2023-08-01T11:19:43.461Z,30.64
2023-08-01T11:20:41.753Z,30.61
2023-08-01T11:21:38.748Z,30.66
2023-08-01T11:22:36.439Z,30.76
2023-08-01T11:23:33.650Z,30.88
2023-08-01T11:24:30.742Z,31.18
2023-08-01T11:25:43.484Z,30.90
2023-08-01T11:26:48.581Z,31.06
2023-08-01T11:27:46.130Z,31.08
2023-08-01T11:28:44.102Z,30.69
2023-08-01T11:29:43.322Z,31.15
2023-08-01T11:30:41.870Z,31.25
2023-08-01T11:31:39.314Z,31.44
2023-08-01T11:32:37.997Z,31.40
2023-08-01T11:33:35.186Z,31.44
2023-08-01T11:34:43.120Z,31.41
2023-08-01T11:35:42.652Z,31.40
2023-08-01T11:36:40.844Z,31.50
2023-08-01T11:37:38.276Z,31.56
2023-08-01T11:38:36.245Z,31.50
2023-08-01T11:39:33.275Z,31.53
2023-08-01T11:40:30.426Z,31.68
2023-08-01T11:41:30.766Z,31.30
2023-08-01T11:42:33.389Z,31.46
2023-08-01T11:43:43.487Z,31.53
2023-08-01T11:44:40.420Z,31.65
2023-08-01T11:45:37.511Z,31.15
2023-08-01T11:46:37.007Z,30.97
2023-08-01T11:47:34.153Z,31.23
2023-08-01T11:48:31.288Z,31.50
2023-08-01T11:49:29.456Z,31.61
2023-08-01T11:50:27.381Z,31.57
2023-08-01T11:51:25.229Z,31.32
2023-08-01T11:52:30.238Z,31.02
2023-08-01T11:53:27.608Z,31.05
2023-08-01T11:54:24.590Z,31.12
2023-08-01T11:55:27.308Z,31.43
2023-08-01T11:56:24.798Z,31.61
2023-08-01T11:57:25.214Z,31.67
2023-08-01T11:58:33.013Z,31.83
2023-08-01T11:59:30.038Z,31.23
2023-08-01T12:00:30.140Z,31.19
2023-08-01T12:01:27.485Z,31.33
2023-08-01T12:02:32.346Z,31.23
2023-08-01T12:03:29.508Z,31.08
2023-08-01T12:04:28.346Z,31.17
2023-08-01T12:05:25.760Z,31.32
2023-08-01T12:06:25.438Z,31.53
2023-08-01T12:07:22.884Z,31.66
2023-08-01T12:08:20.038Z,31.63
2023-08-01T12:09:17.124Z,31.44
2023-08-01T12:10:14.094Z,31.35
2023-08-01T12:11:31.381Z,31.19
2023-08-01T12:12:29.370Z,30.66
2023-08-01T12:13:27.453Z,30.48
2023-08-01T12:14:24.442Z,30.51
2023-08-01T12:15:21.402Z,30.12
2023-08-01T12:16:21.457Z,30.20
2023-08-01T12:17:19.417Z,30.00
2023-08-01T12:18:44.285Z,30.00
2023-08-01T12:19:40.816Z,30.02
2023-08-01T12:20:37.747Z,30.10
2023-08-01T12:21:35.498Z,30.05
2023-08-01T12:22:32.373Z,30.29
2023-08-01T12:23:29.396Z,30.52
2023-08-01T12:24:26.353Z,30.35
2023-08-01T12:25:23.264Z,30.42
2023-08-01T12:26:20.204Z,30.45
2023-08-01T12:27:17.334Z,30.27
2023-08-01T12:28:17.593Z,30.37